KLAR/LAR METAR and TAF weather

Enter ICAO airport designator
Station Type Date Time Source
KLAR METAR 2019/02/20 06:53 UTC NOAA

KLAR 200653Z AUTO 21004KT 10SM CLR M18/M22 A2955 RMK AO2 SLP087 T11831222 411001183


Station Type Date Time Source
KLAR Decoded METAR 2019/02/20 06:53 UTC NOAA

LARAMIE REGIONAL AIRPORT, WY, United States (KLAR) 41-19N 105-40W 2216M
Feb 20, 2019 - 01:53 AM EST / 2019.02.20 0653 UTC
Wind: from the SSW (210 degrees) at 5 MPH (4 KT):0
Visibility: 10 mile(s):0
Sky conditions: clear
Temperature: -0.9 F (-18.3 C)
Windchill: -11 F (-24 C):2
Dew Point: -8.0 F (-22.2 C)
Relative Humidity: 71%
Pressure (altimeter): 29.55 in. Hg (1000 hPa)
ob: KLAR 200653Z AUTO 21004KT 10SM CLR M18/M22 A2955 RMK AO2 SLP087 T11831222 411001183
cycle: 7

Station Type Date Time Source
KLAR TAF 2019/02/20 06:30 UTC NOAA

TAF KLAR 200528Z 2006/2106 27010KT P6SM BKN100
FM201200 27015G25KT P6SM BKN100
FM201600 27020G30KT P6SM BKN100
FM210000 21007KT P6SM BKN100


Example: see airport list